Time;durP1;ratioP1;P1;durP2;ratioP2;P2;SDS_P1;SDS_P2;PMS_P1;PMS_P2;Temp;Humidity;BMP_temperature;BMP_pressure;BME280_temperature;BME280_humidity;BME280_pressure;Samples;Min_cycle;Max_cycle;Signal;HPM_P1;HPM_P2
2022/04/08 00:01:09;;;;;;;8.50;1.40;;;;;;;-141.50;100.00;63355.56;5096462;28;20044;-75
2022/04/08 00:03:36;;;;;;;7.28;1.27;;;;;;;-141.50;100.00;63355.56;5077225;28;20135;-77
2022/04/08 00:06:02;;;;;;;3.95;0.80;;;;;;;-141.50;100.00;63355.56;5074763;28;20056;-77
2022/04/08 00:08:29;;;;;;;4.88;0.98;;;;;;;-141.50;100.00;63355.56;5092311;28;20052;-78
2022/04/08 00:10:55;;;;;;;6.18;1.35;;;;;;;-141.50;100.00;63355.56;5089727;28;20369;-78
2022/04/08 00:13:22;;;;;;;3.53;0.85;;;;;;;-141.50;100.00;63355.56;5088469;28;20103;-76
2022/04/08 00:15:48;;;;;;;7.28;1.00;;;;;;;-141.50;100.00;63355.56;5070083;28;20524;-77
2022/04/08 00:18:15;;;;;;;6.05;0.98;;;;;;;-141.50;100.00;63355.56;5070548;28;20539;-76
2022/04/08 00:20:41;;;;;;;3.25;0.70;;;;;;;-141.50;100.00;63355.56;5091056;28;20084;-77
2022/04/08 00:23:08;;;;;;;7.78;1.02;;;;;;;-141.50;100.00;63355.56;5074203;28;20531;-75
2022/04/08 00:25:35;;;;;;;4.85;0.90;;;;;;;-141.50;100.00;63355.56;5074468;28;20283;-75
2022/04/08 00:28:02;;;;;;;7.80;1.00;;;;;;;-141.50;100.00;63355.56;5074140;28;20128;-77
2022/04/08 00:30:28;;;;;;;9.68;1.67;;;;;;;-141.50;100.00;63355.56;5091778;28;20123;-76
2022/04/08 00:32:58;;;;;;;3.65;0.90;;;;;;;-141.50;100.00;63355.56;5091564;28;20086;-76
2022/04/08 00:35:25;;;;;;;4.65;0.98;;;;;;;-141.50;100.00;63355.56;5091793;28;20070;-76
2022/04/08 00:37:52;;;;;;;11.23;1.23;;;;;;;-141.50;100.00;63355.56;5073028;28;20102;-77
2022/04/08 00:40:18;;;;;;;6.80;0.88;;;;;;;-141.50;100.00;63355.56;5091721;28;20056;-76
2022/04/08 00:42:45;;;;;;;5.18;1.00;;;;;;;-141.50;100.00;63355.56;5092791;28;20131;-77
2022/04/08 00:45:11;;;;;;;6.82;1.30;;;;;;;-141.50;100.00;63355.56;5093001;28;20686;-77
2022/04/08 00:47:41;;;;;;;8.02;1.05;;;;;;;-141.50;100.00;63355.56;5093770;28;20056;-79
2022/04/08 00:50:09;;;;;;;7.30;1.00;;;;;;;-141.50;100.00;63355.56;5075974;28;20486;-77
2022/04/08 00:52:37;;;;;;;6.32;1.38;;;;;;;-141.50;100.00;63355.56;5093714;28;20342;-77
2022/04/08 00:55:05;;;;;;;7.28;1.08;;;;;;;-141.50;100.00;63355.56;5094960;28;20056;-80
2022/04/08 00:57:32;;;;;;;7.60;1.08;;;;;;;-141.50;100.00;63355.56;5094420;28;20571;-80
2022/04/08 01:00:05;;;;;;;7.88;1.10;;;;;;;-141.50;100.00;63355.56;5076170;28;20048;-77
2022/04/08 01:02:32;;;;;;;4.18;0.80;;;;;;;-141.50;100.00;63355.56;5074950;28;20066;-83
2022/04/08 01:04:58;;;;;;;4.47;1.08;;;;;;;-141.50;100.00;63355.56;5091861;28;20090;-79
2022/04/08 01:07:25;;;;;;;3.08;0.70;;;;;;;-141.50;100.00;63355.56;5061282;28;20401;-79
2022/04/08 01:09:52;;;;;;;6.32;1.23;;;;;;;-141.50;100.00;63355.56;5077839;28;20043;-81
2022/04/08 01:12:19;;;;;;;2.97;0.82;;;;;;;-141.50;100.00;63355.56;5093546;28;20380;-80
2022/04/08 01:14:46;;;;;;;6.95;0.90;;;;;;;-141.50;100.00;63355.56;5093532;28;20192;-80
2022/04/08 01:17:12;;;;;;;6.60;0.80;;;;;;;-141.50;100.00;63355.56;5076310;28;20063;-80
2022/04/08 01:19:39;;;;;;;7.25;0.82;;;;;;;-141.50;100.00;63355.56;5093255;28;20098;-82
2022/04/08 01:22:05;;;;;;;4.38;0.73;;;;;;;-141.50;100.00;63355.56;5093023;28;20086;-79
2022/04/08 01:24:35;;;;;;;3.95;0.85;;;;;;;-141.50;100.00;63355.56;5076318;28;20044;-81
2022/04/08 01:27:02;;;;;;;5.35;1.13;;;;;;;-141.50;100.00;63355.56;5093470;28;20072;-80
2022/04/08 01:29:29;;;;;;;10.48;1.42;;;;;;;-141.50;100.00;63355.56;5093935;28;20401;-81
2022/04/08 01:31:55;;;;;;;8.38;1.10;;;;;;;-141.50;100.00;63355.56;5091694;28;20144;-80
2022/04/08 01:34:22;;;;;;;9.15;1.08;;;;;;;-141.50;100.00;63355.56;5092697;28;20072;-82
2022/04/08 01:36:48;;;;;;;8.77;1.35;;;;;;;-141.50;100.00;63355.56;5075747;28;20075;-80
2022/04/08 01:39:15;;;;;;;7.85;1.45;;;;;;;-141.50;100.00;63355.56;5094052;28;20094;-81
2022/04/08 01:41:42;;;;;;;10.65;1.20;;;;;;;-141.50;100.00;63355.56;5093124;28;20073;-82
2022/04/08 01:44:08;;;;;;;13.25;1.50;;;;;;;-141.50;100.00;63355.56;5075671;28;20411;-80
2022/04/08 01:46:35;;;;;;;7.90;1.40;;;;;;;-141.50;100.00;63355.56;5094066;28;20079;-82
2022/04/08 01:49:01;;;;;;;5.57;1.00;;;;;;;-141.50;100.00;63355.56;5094233;28;20052;-81
2022/04/08 01:51:28;;;;;;;10.43;1.58;;;;;;;-141.50;100.00;63355.56;5095328;28;20048;-80
2022/04/08 01:53:54;;;;;;;8.65;1.13;;;;;;;-141.50;100.00;63355.56;5093974;28;20072;-81
2022/04/08 01:56:21;;;;;;;10.57;1.45;;;;;;;-141.50;100.00;63355.56;5075746;28;20048;-80
2022/04/08 01:58:47;;;;;;;7.13;1.15;;;;;;;-141.50;100.00;63355.56;5073239;28;20100;-80
2022/04/08 02:01:14;;;;;;;13.32;1.63;;;;;;;-141.50;100.00;63355.56;5091702;28;20052;-79
2022/04/08 02:03:40;;;;;;;7.20;1.33;;;;;;;-141.50;100.00;63355.56;5092535;28;20051;-80
2022/04/08 02:06:07;;;;;;;7.50;1.40;;;;;;;-141.50;100.00;63355.56;5063279;28;20389;-80
2022/04/08 02:08:33;;;;;;;9.20;1.10;;;;;;;-141.50;100.00;63355.56;5092950;28;20131;-79
2022/04/08 02:11:00;;;;;;;7.97;0.98;;;;;;;-141.50;100.00;63355.56;5092636;28;20506;-78
2022/04/08 02:13:26;;;;;;;7.32;1.10;;;;;;;-141.50;100.00;63355.56;5093074;28;20561;-80
2022/04/08 02:15:53;;;;;;;5.18;1.17;;;;;;;-141.50;100.00;63355.56;5092631;28;20526;-80
2022/04/08 02:18:20;;;;;;;6.40;1.05;;;;;;;-141.50;100.00;63355.56;5076158;28;20058;-82
2022/04/08 02:20:46;;;;;;;7.82;1.20;;;;;;;-141.50;100.00;63355.56;5092551;28;20078;-79
2022/04/08 02:23:14;;;;;;;2.42;1.00;;;;;;;-141.50;100.00;63355.56;5092241;28;20051;-80
2022/04/08 02:25:40;;;;;;;2.92;0.73;;;;;;;-141.50;100.00;63355.56;5093238;28;20048;-79
2022/04/08 02:28:07;;;;;;;3.83;0.93;;;;;;;-141.50;100.00;63355.56;5092941;28;20461;-78
2022/04/08 02:30:33;;;;;;;2.97;0.75;;;;;;;-141.50;100.00;63355.56;5074351;28;20105;-80
2022/04/08 02:33:01;;;;;;;2.83;0.60;;;;;;;-141.50;100.00;63355.56;5075679;28;20083;-81
2022/04/08 02:35:30;;;;;;;4.75;0.88;;;;;;;-141.50;100.00;63355.56;5076043;28;20115;-78
2022/04/08 02:37:56;;;;;;;3.35;0.90;;;;;;;-141.50;100.00;63355.56;5075172;28;20137;-81
2022/04/08 02:40:23;;;;;;;4.90;1.00;;;;;;;-141.50;100.00;63355.56;5093448;28;20047;-84
2022/04/08 02:42:50;;;;;;;3.85;0.90;;;;;;;-141.50;100.00;63355.56;5096579;28;20129;-79
2022/04/08 02:45:17;;;;;;;3.35;0.63;;;;;;;-141.50;100.00;63355.56;5075367;28;20135;-77
2022/04/08 02:47:44;;;;;;;3.33;0.65;;;;;;;-141.50;100.00;63355.56;5090542;28;20091;-78
2022/04/08 02:50:13;;;;;;;3.20;0.90;;;;;;;-141.50;100.00;63355.56;5091072;28;20405;-79
2022/04/08 02:52:40;;;;;;;4.22;0.68;;;;;;;-141.50;100.00;63355.56;5091482;28;20131;-81
2022/04/08 02:55:07;;;;;;;4.72;0.70;;;;;;;-141.50;100.00;63355.56;5092271;28;20047;-79
2022/04/08 02:57:37;;;;;;;2.63;0.80;;;;;;;-141.50;100.00;63355.56;5091582;28;20128;-81
2022/04/08 03:00:04;;;;;;;1.83;0.68;;;;;;;-141.50;100.00;63355.56;5092011;28;20052;-80
2022/04/08 03:02:31;;;;;;;3.20;0.50;;;;;;;-141.50;100.00;63355.56;5092211;28;20055;-80
2022/04/08 03:05:06;;;;;;;7.22;0.93;;;;;;;-141.50;100.00;63355.56;5089438;28;20106;-80
2022/04/08 03:07:33;;;;;;;4.97;0.85;;;;;;;-141.50;100.00;63355.56;5076232;28;20591;-79
2022/04/08 03:10:00;;;;;;;3.65;1.42;;;;;;;-141.50;100.00;63355.56;5082487;28;20108;-79
2022/04/08 03:12:27;;;;;;;4.10;0.88;;;;;;;-141.50;100.00;63355.56;5091465;28;20121;-78
2022/04/08 03:14:56;;;;;;;3.60;0.80;;;;;;;-141.50;100.00;63355.56;5091828;28;20135;-81
2022/04/08 03:17:23;;;;;;;4.85;0.95;;;;;;;-141.50;100.00;63355.56;5091481;28;20420;-80
2022/04/08 03:19:50;;;;;;;5.15;1.00;;;;;;;-141.50;100.00;63355.56;5074089;28;20124;-79
2022/04/08 03:22:20;;;;;;;3.08;0.90;;;;;;;-141.50;100.00;63355.56;5101089;28;20047;-81
2022/04/08 03:24:47;;;;;;;4.03;1.10;;;;;;;-141.50;100.00;63355.56;5102269;28;20067;-82
2022/04/08 03:27:15;;;;;;;5.10;1.10;;;;;;;-141.50;100.00;63355.56;5083135;28;20078;-83
2022/04/08 03:29:42;;;;;;;3.20;1.05;;;;;;;-141.50;100.00;63355.56;5102030;28;20132;-82
2022/04/08 03:32:09;;;;;;;3.60;1.13;;;;;;;-141.50;100.00;63355.56;5102954;28;20592;-80
2022/04/08 03:34:36;;;;;;;5.32;1.02;;;;;;;-141.50;100.00;63355.56;5104514;28;20576;-79
2022/04/08 03:37:03;;;;;;;1.75;0.80;;;;;;;-141.50;100.00;63355.56;5101212;28;20077;-81
2022/04/08 03:39:29;;;;;;;5.35;1.00;;;;;;;-141.50;100.00;63355.56;5095756;28;20098;-82
2022/04/08 03:41:56;;;;;;;3.72;1.17;;;;;;;-141.50;100.00;63355.56;5094652;28;20047;-82
2022/04/08 03:44:22;;;;;;;4.68;1.05;;;;;;;-141.50;100.00;63355.56;5111731;28;20071;-81
2022/04/08 03:46:49;;;;;;;4.10;1.20;;;;;;;-141.50;100.00;63355.56;5112164;28;20097;-80
2022/04/08 03:49:17;;;;;;;5.28;1.25;;;;;;;-141.50;100.00;63355.56;5111400;28;20043;-81
2022/04/08 03:51:45;;;;;;;3.38;1.17;;;;;;;-141.50;100.00;63355.56;5111791;28;20039;-83
2022/04/08 03:54:18;;;;;;;4.65;1.40;;;;;;;-141.50;100.00;63355.56;5106986;28;20047;-80
2022/04/08 03:56:45;;;;;;;4.18;1.30;;;;;;;-141.50;100.00;63355.56;5099096;28;20051;-80
2022/04/08 03:59:11;;;;;;;2.90;1.15;;;;;;;-141.50;100.00;63355.56;5108415;28;20067;-81
2022/04/08 04:01:38;;;;;;;3.28;1.55;;;;;;;-141.50;100.00;63355.56;5090359;28;20487;-81
2022/04/08 04:04:05;;;;;;;2.83;1.13;;;;;;;-141.50;100.00;63355.56;5111361;28;20052;-80
2022/04/08 04:06:31;;;;;;;2.55;1.15;;;;;;;-141.50;100.00;63355.56;5095164;28;20032;-83
2022/04/08 04:08:58;;;;;;;4.20;1.50;;;;;;;-141.50;100.00;63355.56;5093381;28;20052;-80
2022/04/08 04:11:25;;;;;;;6.00;1.20;;;;;;;-141.50;100.00;63355.56;5108252;28;20036;-80
2022/04/08 04:13:52;;;;;;;4.25;1.42;;;;;;;-141.50;100.00;63355.56;5089124;28;20044;-80
2022/04/08 04:16:18;;;;;;;4.93;1.60;;;;;;;-141.50;100.00;63355.56;5093789;28;20150;-82
2022/04/08 04:18:45;;;;;;;5.70;1.40;;;;;;;-141.50;100.00;63355.56;5110663;28;20059;-82
2022/04/08 04:21:12;;;;;;;9.85;1.38;;;;;;;-141.50;100.00;63355.56;5105887;28;20098;-84
2022/04/08 04:23:39;;;;;;;6.30;1.42;;;;;;;-141.50;100.00;63355.56;5096268;28;20142;-81
2022/04/08 04:26:06;;;;;;;4.97;1.65;;;;;;;-141.50;100.00;63355.56;5097446;28;20120;-82
2022/04/08 04:28:33;;;;;;;6.70;1.50;;;;;;;-141.50;100.00;63355.56;5097088;28;20131;-80
2022/04/08 04:30:59;;;;;;;3.72;1.17;;;;;;;-141.50;100.00;63355.56;5098241;28;20306;-80
2022/04/08 04:33:27;;;;;;;3.08;1.30;;;;;;;-141.50;100.00;63355.56;5083759;28;20080;-82
2022/04/08 04:35:54;;;;;;;6.88;1.35;;;;;;;-141.50;100.00;63355.56;5080059;28;20124;-82
2022/04/08 04:38:21;;;;;;;2.65;1.20;;;;;;;-141.50;100.00;63355.56;5081326;28;20069;-81
2022/04/08 04:40:48;;;;;;;3.55;1.20;;;;;;;-141.50;100.00;63355.56;5099065;28;20503;-80
2022/04/08 04:43:15;;;;;;;4.30;1.80;;;;;;;-141.50;100.00;63355.56;5064775;28;20102;-82
2022/04/08 04:45:41;;;;;;;7.97;1.40;;;;;;;-141.50;100.00;63355.56;5099300;28;20044;-82
2022/04/08 04:48:10;;;;;;;5.57;1.35;;;;;;;-141.50;100.00;63355.56;5080222;28;20059;-79
2022/04/08 04:50:40;;;;;;;10.43;2.35;;;;;;;-141.50;100.00;63355.56;5098821;28;20109;-79
2022/04/08 04:53:07;;;;;;;6.53;1.67;;;;;;;-141.50;100.00;63355.56;5098855;28;20048;-80
2022/04/08 04:55:33;;;;;;;5.60;1.80;;;;;;;-141.50;100.00;63355.56;5105212;28;20492;-81
2022/04/08 04:58:01;;;;;;;5.13;1.55;;;;;;;-141.50;100.00;63355.56;5098995;28;20052;-82
2022/04/08 05:00:27;;;;;;;4.80;1.63;;;;;;;-141.50;100.00;63355.56;5098919;28;20141;-81
2022/04/08 05:02:54;;;;;;;6.25;1.73;;;;;;;-141.50;100.00;63355.56;5101852;28;20109;-80
2022/04/08 05:05:20;;;;;;;5.03;1.70;;;;;;;-141.50;100.00;63355.56;5095641;28;20052;-83
2022/04/08 05:07:47;;;;;;;5.85;1.60;;;;;;;-141.50;100.00;63355.56;5103505;28;20048;-79
2022/04/08 05:10:13;;;;;;;4.43;1.60;;;;;;;-141.50;100.00;63355.56;5092144;28;20594;-81
2022/04/08 05:12:40;;;;;;;6.60;1.60;;;;;;;-141.50;100.00;63355.56;5073154;28;20083;-82
2022/04/08 05:15:09;;;;;;;5.28;1.63;;;;;;;-141.50;100.00;63355.56;5092660;28;20058;-80
2022/04/08 05:17:36;;;;;;;6.55;2.00;;;;;;;-141.50;100.00;63355.56;5069886;28;20048;-81
2022/04/08 05:20:03;;;;;;;6.30;1.67;;;;;;;-141.50;100.00;63355.56;5073608;28;20083;-81
2022/04/08 05:22:30;;;;;;;4.35;1.55;;;;;;;-141.50;100.00;63355.56;5072510;28;20431;-81
2022/04/08 05:24:58;;;;;;;9.32;1.50;;;;;;;-141.50;100.00;63355.56;5111024;28;20144;-83
2022/04/08 05:27:24;;;;;;;13.98;2.08;;;;;;;-141.50;100.00;63355.56;5085369;28;20105;-81
2022/04/08 05:30:06;;;;;;;6.13;1.50;;;;;;;-141.50;100.00;63355.56;5092465;28;20130;-82
2022/04/08 05:32:32;;;;;;;;;;;;;;;-141.50;100.00;63355.56;5089898;28;20056;-82
2022/04/08 05:34:59;;;;;;;4.18;1.30;;;;;;;-141.50;100.00;63355.56;5090115;28;20397;-83
2022/04/08 05:37:26;;;;;;;5.45;1.70;;;;;;;-141.50;100.00;63355.56;5091598;28;20060;-81
2022/04/08 05:39:53;;;;;;;7.28;1.73;;;;;;;-141.50;100.00;63355.56;5074479;28;20113;-83
2022/04/08 05:42:20;;;;;;;4.10;1.50;;;;;;;-141.50;100.00;63355.56;5093117;28;20583;-82
2022/04/08 05:44:50;;;;;;;4.93;1.52;;;;;;;-141.50;100.00;63355.56;5071451;28;20074;-82
2022/04/08 05:47:17;;;;;;;5.78;1.38;;;;;;;-141.50;100.00;63355.56;5080649;28;20072;-81
2022/04/08 05:49:43;;;;;;;7.80;1.80;;;;;;;-141.50;100.00;63355.56;5089291;28;20044;-81
2022/04/08 05:52:10;;;;;;;4.75;1.80;;;;;;;-141.50;100.00;63355.56;5093917;28;20085;-83
2022/04/08 05:54:36;;;;;;;3.67;1.65;;;;;;;-141.50;100.00;63355.56;5087436;28;20130;-81
2022/04/08 05:57:03;;;;;;;6.50;1.50;;;;;;;-141.50;100.00;63355.56;5097710;28;20200;-79
2022/04/08 05:59:30;;;;;;;5.40;1.80;;;;;;;-141.50;100.00;63355.56;5087512;28;20063;-81
2022/04/08 06:01:56;;;;;;;3.60;1.50;;;;;;;-141.50;100.00;63355.56;5098396;28;20040;-81
2022/04/08 06:04:23;;;;;;;3.78;1.50;;;;;;;-141.50;100.00;63355.56;5079303;28;20052;-78
2022/04/08 06:06:50;;;;;;;4.55;1.60;;;;;;;-141.50;100.00;63355.56;5082976;28;20082;-82
2022/04/08 06:09:17;;;;;;;10.07;2.13;;;;;;;-141.50;100.00;63355.56;5074122;28;20062;-80
2022/04/08 06:11:46;;;;;;;6.30;2.10;;;;;;;-141.50;100.00;63355.56;5075317;28;20048;-81
2022/04/08 06:14:13;;;;;;;4.13;1.60;;;;;;;-141.50;100.00;63355.56;5091742;28;20073;-82
2022/04/08 06:16:40;;;;;;;3.92;1.30;;;;;;;-141.50;100.00;63355.56;5073540;28;20083;-80
2022/04/08 06:19:06;;;;;;;5.50;1.77;;;;;;;-141.50;100.00;63355.56;5092495;28;20063;-81
2022/04/08 06:21:33;;;;;;;4.80;1.58;;;;;;;-141.50;100.00;63355.56;5092880;28;20131;-81
2022/04/08 06:23:59;;;;;;;2.85;1.30;;;;;;;-141.50;100.00;63355.56;5081983;28;20075;-81
2022/04/08 06:26:28;;;;;;;4.40;1.70;;;;;;;-141.50;100.00;63355.56;5074810;28;20048;-81
2022/04/08 06:28:54;;;;;;;5.18;1.60;;;;;;;-141.50;100.00;63355.56;5076739;28;20067;-81
2022/04/08 06:31:21;;;;;;;4.15;1.40;;;;;;;-141.50;100.00;63355.56;5062026;28;20054;-82
2022/04/08 06:33:49;;;;;;;4.00;1.33;;;;;;;-141.50;100.00;63355.56;5078852;28;20052;-81
2022/04/08 06:36:15;;;;;;;3.13;1.30;;;;;;;-141.50;100.00;63355.56;5092781;28;20055;-80
2022/04/08 06:38:41;;;;;;;4.90;1.17;;;;;;;-141.50;100.00;63355.56;5075687;28;20086;-83
2022/04/08 06:41:08;;;;;;;5.70;1.70;;;;;;;-141.50;100.00;63355.56;5074303;28;20080;-81
2022/04/08 06:43:34;;;;;;;3.03;1.30;;;;;;;-141.50;100.00;63355.56;5093163;28;20108;-82
2022/04/08 06:46:01;;;;;;;3.67;1.20;;;;;;;-141.50;100.00;63355.56;5091055;28;20094;-79
2022/04/08 06:48:28;;;;;;;3.53;1.17;;;;;;;-141.50;100.00;63355.56;5072539;28;20083;-80
2022/04/08 06:50:58;;;;;;;3.08;1.20;;;;;;;-141.50;100.00;63355.56;5072757;28;20047;-77
2022/04/08 06:53:24;;;;;;;2.63;1.27;;;;;;;-141.50;100.00;63355.56;5092188;28;20080;-79
2022/04/08 06:55:51;;;;;;;2.97;1.45;;;;;;;-141.50;100.00;63355.56;5092942;28;20513;-78
2022/04/08 06:58:19;;;;;;;2.30;0.88;;;;;;;-141.50;100.00;63355.56;5073796;28;20048;-80
2022/04/08 07:00:45;;;;;;;4.00;1.23;;;;;;;-141.50;100.00;63355.56;5099110;28;20075;-81
2022/04/08 07:03:12;;;;;;;3.55;1.38;;;;;;;-141.50;100.00;63355.56;5113024;28;20055;-80
2022/04/08 07:05:40;;;;;;;2.83;1.17;;;;;;;-141.50;100.00;63355.56;5088694;28;20052;-80
2022/04/08 07:08:07;;;;;;;2.63;1.20;;;;;;;-141.50;100.00;63355.56;5060558;28;20131;-81
2022/04/08 07:10:33;;;;;;;4.80;1.50;;;;;;;-141.50;100.00;63355.56;5086770;28;20067;-81
2022/04/08 07:13:18;;;;;;;5.15;1.30;;;;;;;-141.50;100.00;63355.56;5119421;28;20055;-81
2022/04/08 07:15:44;;;;;;;4.40;1.30;;;;;;;-141.50;100.00;63355.56;5114744;28;20054;-80
2022/04/08 07:18:11;;;;;;;3.67;1.23;;;;;;;-141.50;100.00;63355.56;5121153;28;20812;-80
2022/04/08 07:20:37;;;;;;;2.17;1.08;;;;;;;-141.50;100.00;63355.56;5105033;28;20052;-81
2022/04/08 07:23:05;;;;;;;2.08;1.10;;;;;;;-141.50;100.00;63355.56;5090434;28;20535;-83
2022/04/08 07:25:32;;;;;;;4.60;1.00;;;;;;;-141.50;100.00;63355.56;5120722;28;20063;-82
2022/04/08 07:27:59;;;;;;;4.55;1.10;;;;;;;-141.50;100.00;63355.56;5101269;28;20113;-83
2022/04/08 07:30:26;;;;;;;2.72;1.10;;;;;;;-141.50;100.00;63355.56;5083154;28;20079;-82
2022/04/08 07:32:56;;;;;;;4.85;1.33;;;;;;;-141.50;100.00;63355.56;5106895;28;20067;-80
2022/04/08 07:35:33;;;;;;;4.95;1.17;;;;;;;-141.50;100.00;63355.56;5105292;28;20044;-80
2022/04/08 07:38:03;;;;;;;4.53;1.45;;;;;;;-141.50;100.00;63355.56;5084633;28;20151;-81
2022/04/08 07:40:30;;;;;;;1.92;1.00;;;;;;;-141.50;100.00;63355.56;5083888;28;20069;-78
2022/04/08 07:42:57;;;;;;;4.20;1.15;;;;;;;-141.50;100.00;63355.56;5116241;28;20055;-81
2022/04/08 07:45:27;;;;;;;3.95;1.02;;;;;;;-141.50;100.00;63355.56;5096737;28;20458;-81
2022/04/08 07:47:55;;;;;;;3.08;0.93;;;;;;;-141.50;100.00;63355.56;5093996;28;20059;-79
2022/04/08 07:50:21;;;;;;;3.08;0.80;;;;;;;-141.50;100.00;63355.56;5091955;28;20077;-81
2022/04/08 07:52:48;;;;;;;3.90;1.02;;;;;;;-141.50;100.00;63355.56;5091196;28;20059;-80
2022/04/08 07:55:17;;;;;;;2.55;0.90;;;;;;;-141.50;100.00;63355.56;5105878;28;20047;-78
2022/04/08 07:57:45;;;;;;;2.15;1.02;;;;;;;-141.50;100.00;63355.56;5093647;28;20532;-82
2022/04/08 08:00:14;;;;;;;3.10;0.90;;;;;;;-141.50;100.00;63355.56;5088310;28;20052;-81
2022/04/08 08:02:42;;;;;;;3.58;1.10;;;;;;;-141.50;100.00;63355.56;5094127;28;20119;-81
2022/04/08 08:05:09;;;;;;;3.03;1.00;;;;;;;-141.50;100.00;63355.56;5076644;28;20078;-82
2022/04/08 08:07:52;;;;;;;7.50;1.13;;;;;;;-141.50;100.00;63355.56;5060381;28;20099;-80
2022/04/08 08:10:25;;;;;;;3.47;1.10;;;;;;;-141.50;100.00;63355.56;5086134;28;20051;-82
2022/04/08 08:12:53;;;;;;;2.45;1.27;;;;;;;-141.50;100.00;63355.56;5078409;28;20054;-78
2022/04/08 08:15:21;;;;;;;2.38;1.00;;;;;;;-141.50;100.00;63355.56;5104824;28;20477;-79
2022/04/08 08:17:49;;;;;;;3.03;1.00;;;;;;;-141.50;100.00;63355.56;5102067;28;20048;-79
2022/04/08 08:20:18;;;;;;;2.67;0.90;;;;;;;-141.50;100.00;63355.56;5094172;28;20048;-79
2022/04/08 08:22:45;;;;;;;2.33;1.00;;;;;;;-141.50;100.00;63355.56;5104127;28;20089;-80
2022/04/08 08:25:13;;;;;;;4.38;1.23;;;;;;;-141.50;100.00;63355.56;5117138;28;20086;-80
2022/04/08 08:27:41;;;;;;;5.55;1.20;;;;;;;-141.50;100.00;63355.56;5111107;28;20146;-79
2022/04/08 08:30:12;;;;;;;3.33;1.20;;;;;;;-141.50;100.00;63355.56;5080609;28;20052;-79
2022/04/08 08:32:40;;;;;;;3.25;1.00;;;;;;;-141.50;100.00;63355.56;5081751;28;20052;-81
2022/04/08 08:35:08;;;;;;;2.70;0.95;;;;;;;-141.50;100.00;63355.56;5066527;28;20087;-81
2022/04/08 08:37:35;;;;;;;4.75;1.30;;;;;;;-141.50;100.00;63355.56;5098108;28;20052;-81
2022/04/08 08:40:03;;;;;;;4.35;1.10;;;;;;;-141.50;100.00;63355.56;5089416;28;20095;-78
2022/04/08 08:42:30;;;;;;;7.05;1.20;;;;;;;-141.50;100.00;63355.56;5094323;28;20079;-82
2022/04/08 08:44:56;;;;;;;3.60;1.20;;;;;;;-141.50;100.00;63355.56;5096198;28;20573;-80
2022/04/08 08:47:26;;;;;;;4.47;1.20;;;;;;;-141.50;100.00;63355.56;5083278;28;20586;-82
2022/04/08 08:49:52;;;;;;;2.60;1.08;;;;;;;-141.50;100.00;63355.56;5058483;28;20045;-80
2022/04/08 08:52:19;;;;;;;4.07;1.20;;;;;;;-141.50;100.00;63355.56;5057430;28;20127;-82
2022/04/08 08:54:47;;;;;;;4.82;1.05;;;;;;;-141.50;100.00;63355.56;5075848;28;20537;-80
2022/04/08 08:57:17;;;;;;;3.35;1.10;;;;;;;-141.50;100.00;63355.56;5076047;28;20072;-79
2022/04/08 08:59:45;;;;;;;3.38;0.90;;;;;;;-141.50;100.00;63355.56;5062772;28;20143;-79
2022/04/08 09:02:17;;;;;;;3.78;1.00;;;;;;;-141.50;100.00;63355.56;5058074;28;20546;-78
2022/04/08 09:04:44;;;;;;;1.80;0.90;;;;;;;-141.50;100.00;63355.56;5087512;28;20055;-80
2022/04/08 09:07:29;;;;;;;2.13;0.88;;;;;;;-141.50;100.00;63355.56;5082122;28;20083;-80
2022/04/08 09:09:57;;;;;;;4.03;1.00;;;;;;;-141.50;100.00;63355.56;5093886;28;20427;-79
2022/04/08 09:12:26;;;;;;;4.78;1.10;;;;;;;-141.50;100.00;63355.56;5098983;28;20048;-78
2022/04/08 09:14:55;;;;;;;3.72;0.85;;;;;;;-141.50;100.00;63355.56;5079780;28;20110;-78
2022/04/08 09:17:25;;;;;;;1.83;0.80;;;;;;;-141.50;100.00;63355.56;5098337;28;20044;-79
2022/04/08 09:19:54;;;;;;;3.00;1.00;;;;;;;-141.50;100.00;63355.56;5094639;28;20539;-82
2022/04/08 09:22:26;;;;;;;4.60;1.10;;;;;;;-141.50;100.00;63355.56;5094034;28;20515;-79
2022/04/08 09:24:53;;;;;;;3.85;1.25;;;;;;;-141.50;100.00;63355.56;5095083;28;20117;-78
2022/04/08 09:27:21;;;;;;;3.00;1.20;;;;;;;-141.50;100.00;63355.56;5095530;28;20059;-79
2022/04/08 09:29:47;;;;;;;4.07;1.27;;;;;;;-141.50;100.00;63355.56;5095368;28;20056;-81
2022/04/08 09:32:34;;;;;;;4.35;1.35;;;;;;;-141.50;100.00;63355.56;5095376;28;20051;-80
2022/04/08 09:35:01;;;;;;;5.07;1.35;;;;;;;-141.50;100.00;63355.56;5076626;28;20234;-80
2022/04/08 09:37:28;;;;;;;2.38;1.20;;;;;;;-141.50;100.00;63355.56;5084906;28;20486;-80
2022/04/08 09:39:59;;;;;;;6.72;1.40;;;;;;;-141.50;100.00;63355.56;5113720;28;20047;-81
2022/04/08 09:42:46;;;;;;;4.32;1.33;;;;;;;-141.50;100.00;63355.56;5085686;28;20064;-80
2022/04/08 09:45:14;;;;;;;4.07;1.17;;;;;;;-141.50;100.00;63355.56;5094199;28;20135;-76
2022/04/08 09:47:41;;;;;;;5.75;1.30;;;;;;;-141.50;100.00;63355.56;5084544;28;20121;-78
2022/04/08 09:50:11;;;;;;;3.90;1.10;;;;;;;-141.50;100.00;63355.56;5100192;28;20048;-76
2022/04/08 09:52:42;;;;;;;2.75;1.05;;;;;;;-141.50;100.00;63355.56;5108424;28;20032;-76
2022/04/08 09:55:09;;;;;;;5.05;1.20;;;;;;;-141.50;100.00;63355.56;5096092;28;20087;-76
2022/04/08 09:57:37;;;;;;;4.28;1.17;;;;;;;-141.50;100.00;63355.56;5096109;28;20090;-76
2022/04/08 10:00:05;;;;;;;2.75;1.20;;;;;;;-141.50;100.00;63355.56;5095025;28;20052;-80
2022/04/08 10:02:41;;;;;;;2.72;1.30;;;;;;;-141.50;100.00;63355.56;5093414;28;20043;-78
2022/04/08 10:05:10;;;;;;;3.22;1.15;;;;;;;-141.50;100.00;63355.56;5088823;28;20187;-80
2022/04/08 10:07:38;;;;;;;3.67;1.38;;;;;;;-141.50;100.00;63355.56;5087774;28;20094;-77
2022/04/08 10:10:26;;;;;;;4.75;1.45;;;;;;;-141.50;100.00;63355.56;5105035;28;20080;-78
2022/04/08 10:13:20;;;;;;;3.08;1.35;;;;;;;-141.50;100.00;63355.56;5077541;28;20080;-79
2022/04/08 10:16:01;;;;;;;4.43;1.70;;;;;;;-141.50;100.00;63355.56;5074754;28;20131;-78
2022/04/08 10:18:39;;;;;;;3.17;1.50;;;;;;;-141.50;100.00;63355.56;5076262;28;20087;-76
2022/04/08 10:21:05;;;;;;;3.83;1.40;;;;;;;-141.50;100.00;63355.56;5103697;28;20117;-76
2022/04/08 10:23:58;;;;;;;2.60;1.30;;;;;;;-141.50;100.00;63355.56;5110813;28;20085;-76
2022/04/08 10:26:26;;;;;;;3.20;1.23;;;;;;;-141.50;100.00;63355.56;5087433;28;20044;-76
2022/04/08 10:28:54;;;;;;;4.47;1.33;;;;;;;-141.50;100.00;63355.56;5090148;28;20074;-76
2022/04/08 10:31:26;;;;;;;4.63;1.40;;;;;;;-141.50;100.00;63355.56;5093375;28;20059;-77
2022/04/08 10:33:52;;;;;;;2.90;1.40;;;;;;;-141.50;100.00;63355.56;5082090;28;20090;-77
2022/04/08 10:36:30;;;;;;;3.05;1.67;;;;;;;-141.50;100.00;63355.56;5092526;28;20128;-80
2022/04/08 10:39:12;;;;;;;4.20;1.65;;;;;;;-141.50;100.00;63355.56;5097658;28;20401;-77
2022/04/08 10:41:56;;;;;;;4.15;1.67;;;;;;;-141.50;100.00;63355.56;5076256;28;20117;-79
2022/04/08 10:44:41;;;;;;;3.70;1.60;;;;;;;-141.50;100.00;63355.56;5082560;28;20636;-81
2022/04/08 10:47:45;;;;;;;5.50;1.52;;;;;;;-141.50;100.00;63355.56;5074426;28;20056;-76
2022/04/08 10:50:22;;;;;;;5.22;1.67;;;;;;;-141.50;100.00;63355.56;5096239;28;20052;-78
2022/04/08 10:52:49;;;;;;;4.07;1.70;;;;;;;-141.50;100.00;63355.56;5079030;28;20055;-78
2022/04/08 10:55:15;;;;;;;4.85;1.55;;;;;;;-141.50;100.00;63355.56;5099543;28;20052;-78
2022/04/08 10:57:44;;;;;;;3.08;1.58;;;;;;;-141.50;100.00;63355.56;5082123;28;20047;-78
2022/04/08 11:00:12;;;;;;;2.67;1.40;;;;;;;-141.50;100.00;63355.56;5096050;28;20052;-80
2022/04/08 11:02:43;;;;;;;4.75;1.60;;;;;;;-141.50;100.00;63355.56;5073935;28;20040;-78
2022/04/08 11:05:11;;;;;;;2.78;1.50;;;;;;;-141.50;100.00;63355.56;5087802;28;20090;-79
2022/04/08 11:07:49;;;;;;;3.80;1.58;;;;;;;-141.50;100.00;63355.56;5090684;28;20060;-79
2022/04/08 11:10:21;;;;;;;2.33;1.50;;;;;;;-141.50;100.00;63355.56;5079383;28;20079;-78
2022/04/08 11:12:52;;;;;;;4.25;1.80;;;;;;;-141.50;100.00;63355.56;5087663;28;20048;-77
2022/04/08 11:15:23;;;;;;;3.67;1.63;;;;;;;-141.50;100.00;63355.56;5095335;28;20116;-78